Latest Coastal Weather Observations for Arlington Reef

IDQ60701

Issued at 1:42 pm EST Monday 29 May 2017 (issued every 10 minutes, with the page automatically refreshed every 10 minutes)

About coastal observations | Map of coastal stations | Coastal observations for QLD | Marine services | Other Formats
Station Details ID: 200879 Name: ARLINGTON REEF Lat: -16.72 Lon: 146.11 Height: 0.0 m
Data from the previous 72 hours. | See also: Recent months at Arlington Reef
Date/Time
EST
Temp
°C
Wind Pressure Rain since
9am
mm
Weather Cloud Vis
km
Sea
Height
m
Swell
Dir  Spd
kts
Gust
kts
hPa Trend Height
m
Period
s
Dir
29/01:30pm - S 20 23 1015.2 - - - - - - - - -
29/01:00pm - S 20 25 1015.5 - - - - - - - - -
29/12:30pm - S 20 23 1015.8 - - - - - - - - -
29/12:00pm - S 20 23 1016.3 - - - - - - - - -
29/11:30am - S 20 23 1016.7 - - - - - - - - -
29/11:00am - S 20 23 1017.0 - - - - - - - - -
29/10:30am - S 20 24 1017.3 - - - - - - - - -
29/10:00am - S 21 23 1017.5 - - - - - - - - -
29/09:30am - S 20 22 1017.5 - - - - - - - - -
29/09:00am - S 19 23 1017.1 - - - - - - - - -
29/08:30am - S 19 23 1016.8 - - - - - - - - -
29/08:00am - S 18 21 1016.5 - - - - - - - - -
29/07:30am - S 18 22 1016.1 - - - - - - - - -
29/07:00am - S 18 22 1015.6 - - - - - - - - -
29/06:30am - S 18 21 1015.3 - - - - - - - - -
29/06:00am - S 18 21 1015.1 - - - - - - - - -
29/05:30am - S 18 21 1015.1 - - - - - - - - -
29/05:00am - S 20 23 1015.1 - - - - - - - - -
29/04:30am - S 19 22 1015.1 - - - - - - - - -
29/04:00am - S 17 20 1015.2 - - - - - - - - -
29/03:30am - S 17 21 1015.3 - - - - - - - - -
29/03:00am - S 16 20 1015.2 - - - - - - - - -
29/02:30am - S 16 19 1015.3 - - - - - - - - -
29/02:00am - S 16 18 1015.5 - - - - - - - - -
29/01:30am - S 15 20 1015.7 - - - - - - - - -
29/01:00am - S 15 19 1015.8 - - - - - - - - -
29/12:30am - SSE 18 20 1016.0 - - - - - - - - -
29/12:00am - SSE 18 20 1016.0 - - - - - - - - -
 
Date/Time
EST
Temp
°C
Wind Pressure Rain since
9am
mm
Weather Cloud Vis
km
Sea
Height
m
Swell
Dir  Spd
kts
Gust
kts
hPa Trend Height
m
Period
s
Dir
28/11:30pm - SSE 18 21 1016.3 - - - - - - - - -
28/11:00pm - SSE 17 21 1016.7 - - - - - - - - -
28/10:30pm - SSE 17 19 1016.7 - - - - - - - - -
28/10:00pm - SSE 17 19 1016.8 - - - - - - - - -
28/09:30pm - SSE 17 20 1016.8 - - - - - - - - -
28/09:00pm - SSE 17 20 1016.7 - - - - - - - - -
28/08:30pm - SSE 16 19 1016.9 - - - - - - - - -
28/08:00pm - SSE 17 19 1016.5 - - - - - - - - -
28/07:30pm - SSE 18 21 1016.0 - - - - - - - - -
28/07:00pm - SSE 18 21 1015.6 - - - - - - - - -
28/06:30pm - SSE 19 21 1015.4 - - - - - - - - -
28/06:00pm - SSE 18 21 1014.8 - - - - - - - - -
28/05:30pm - SSE 19 21 1014.7 - - - - - - - - -
28/05:00pm - SSE 19 21 1014.2 - - - - - - - - -
28/04:30pm - SSE 19 22 1014.1 - - - - - - - - -
28/04:00pm - SSE 19 23 1013.9 - - - - - - - - -
28/03:30pm - SSE 19 22 1014.0 - - - - - - - - -
28/03:00pm - SSE 20 23 1014.0 - - - - - - - - -
28/02:30pm - SSE 16 21 1014.0 - - - - - - - - -
28/02:00pm - S 17 21 1014.4 - - - - - - - - -
28/01:30pm - S 18 21 1014.8 - - - - - - - - -
28/01:00pm - S 18 21 1014.8 - - - - - - - - -
28/12:30pm - S 17 19 1015.3 - - - - - - - - -
28/12:00pm - S 18 20 1015.7 - - - - - - - - -
28/11:30am - S 19 21 1015.8 - - - - - - - - -
28/11:00am - S 17 20 1015.9 - - - - - - - - -
28/10:30am - S 16 19 1016.2 - - - - - - - - -
28/10:00am - S 16 18 1016.4 - - - - - - - - -
28/09:30am - S 17 19 1016.2 - - - - - - - - -
28/09:00am - SSE 16 19 1016.0 - - - - - - - - -
28/08:30am - S 15 19 1015.9 - - - - - - - - -
28/08:00am - S 17 20 1015.7 - - - - - - - - -
28/07:30am - S 17 19 1015.3 - - - - - - - - -
28/07:00am - S 16 19 1015.1 - - - - - - - - -
28/06:30am - S 17 20 1015.0 - - - - - - - - -
28/06:00am - S 17 20 1014.6 - - - - - - - - -
28/05:30am - S 16 20 1014.6 - - - - - - - - -
28/05:00am - S 16 18 1014.5 - - - - - - - - -
28/04:30am - S 17 19 1014.4 - - - - - - - - -
28/04:00am - S 18 20 1014.6 - - - - - - - - -
28/03:30am - S 16 19 1014.8 - - - - - - - - -
28/03:00am - SSE 16 19 1015.0 - - - - - - - - -
28/02:30am - SSE 16 19 1015.3 - - - - - - - - -
28/02:00am - SE 16 19 1015.9 - - - - - - - - -
28/01:30am - SE 15 17 1016.2 - - - - - - - - -
28/01:00am - SE 15 18 1016.4 - - - - - - - - -
28/12:30am - SE 15 17 1016.6 - - - - - - - - -
28/12:00am - SE 15 18 1016.7 - - - - - - - - -
 
Date/Time
EST
Temp
°C
Wind Pressure Rain since
9am
mm
Weather Cloud Vis
km
Sea
Height
m
Swell
Dir  Spd
kts
Gust
kts
hPa Trend Height
m
Period
s
Dir
27/11:30pm - SE 16 18 1016.8 - - - - - - - - -
27/11:00pm - SE 15 17 1016.9 - - - - - - - - -
27/10:30pm - SE 15 19 1017.0 - - - - - - - - -
27/10:00pm - SSE 12 14 1016.9 - - - - - - - - -
27/09:30pm - SE 13 16 1016.9 - - - - - - - - -
27/09:00pm - SSE 14 17 1016.8 - - - - - - - - -
27/08:30pm - SSE 14 17 1016.7 - - - - - - - - -
27/08:00pm - SE 14 17 1016.4 - - - - - - - - -
27/07:30pm - SE 13 16 1016.0 - - - - - - - - -
27/07:00pm - SSE 14 16 1015.7 - - - - - - - - -
27/06:30pm - SE 14 17 1015.6 - - - - - - - - -
27/06:00pm - SE 13 15 1015.3 - - - - - - - - -
27/05:30pm - SE 13 15 1015.0 - - - - - - - - -
27/05:00pm - SE 13 16 1014.7 - - - - - - - - -
27/04:30pm - SE 13 16 1014.5 - - - - - - - - -
27/04:00pm - SE 13 17 1014.3 - - - - - - - - -
27/03:30pm - SE 14 15 1014.3 - - - - - - - - -
27/03:00pm - SE 14 17 1014.3 - - - - - - - - -
27/02:30pm - SE 14 17 1014.3 - - - - - - - - -
27/02:00pm - SE 15 17 1014.5 - - - - - - - - -
27/01:30pm - SE 15 17 1014.7 - - - - - - - - -
27/01:00pm - SE 15 17 1015.0 - - - - - - - - -
27/12:30pm - SE 14 17 1015.5 - - - - - - - - -
27/12:00pm - SE 15 17 1015.8 - - - - - - - - -
27/11:30am - SE 14 16 1016.2 - - - - - - - - -
27/11:00am - SE 16 18 1016.3 - - - - - - - - -
27/10:30am - SSE 15 18 1016.7 - - - - - - - - -
27/10:00am - S 15 18 1016.7 - - - - - - - - -
27/09:30am - S 14 17 1016.8 - - - - - - - - -
27/09:00am - SE 15 17 1016.8 - - - - - - - - -
27/08:30am - SE 15 18 1016.4 - - - - - - - - -
27/08:00am - SE 15 18 1016.1 - - - - - - - - -
27/07:30am - SE 14 20 1016.0 - - - - - - - - -
27/07:00am - SE 15 18 1015.7 - - - - - - - - -
27/06:30am - SE 14 17 1015.4 - - - - - - - - -
27/06:00am - SE 17 19 1015.1 - - - - - - - - -
27/05:30am - SSE 16 19 1014.7 - - - - - - - - -
27/05:00am - SE 17 20 1014.5 - - - - - - - - -
27/04:30am - SE 18 21 1014.4 - - - - - - - - -
27/04:00am - SE 17 19 1014.6 - - - - - - - - -
27/03:30am - SE 16 19 1014.8 - - - - - - - - -
27/03:00am - SE 16 19 1014.8 - - - - - - - - -
27/02:30am - SE 16 19 1015.2 - - - - - - - - -
27/02:00am - SE 16 20 1015.6 - - - - - - - - -
27/01:30am - SE 16 19 1016.0 - - - - - - - - -
27/01:00am - SE 17 20 1016.0 - - - - - - - - -
27/12:30am - SE 17 20 1015.9 - - - - - - - - -
27/12:00am - SE 17 20 1016.0 - - - - - - - - -
 
Date/Time
EST
Temp
°C
Wind Pressure Rain since
9am
mm
Weather Cloud Vis
km
Sea
Height
m
Swell
Dir  Spd
kts
Gust
kts
hPa Trend Height
m
Period
s
Dir
26/11:30pm - SE 16 19 1016.1 - - - - - - - - -
26/11:00pm - SE 17 20 1016.3 - - - - - - - - -
26/10:30pm - SE 17 19 1016.3 - - - - - - - - -
26/10:00pm - SE 17 19 1016.2 - - - - - - - - -
26/09:30pm - SE 16 20 1016.3 - - - - - - - - -
26/09:00pm - SE 17 20 1016.2 - - - - - - - - -
26/08:30pm - SE 17 20 1016.3 - - - - - - - - -
26/08:00pm - SE 17 20 1016.0 - - - - - - - - -
26/07:30pm - SE 16 20 1015.7 - - - - - - - - -
26/07:00pm - SE 16 20 1015.1 - - - - - - - - -
26/06:30pm - SE 16 19 1014.9 - - - - - - - - -
26/06:00pm - SE 16 19 1014.6 - - - - - - - - -
26/05:30pm - SE 16 20 1014.4 - - - - - - - - -
26/05:00pm - SE 17 20 1014.2 - - - - - - - - -
26/04:30pm - SE 17 21 1014.0 - - - - - - - - -
26/04:00pm - SE 18 21 1013.9 - - - - - - - - -
26/03:30pm - SE 17 20 1013.9 - - - - - - - - -
26/03:00pm - SE 18 21 1013.8 - - - - - - - - -
26/02:30pm - SE 18 21 1014.0 - - - - - - - - -
26/02:00pm - SE 18 21 1014.4 - - - - - - - - -

Other Formats:

Comma delimited format used in spreadsheet applications
http://www.bom.gov.au/fwo/IDQ60701/IDQ60701.94284.axf

JavaScript Object Notation format (JSON) in row-major order
http://www.bom.gov.au/fwo/IDQ60701/IDQ60701.94284.json